createdAt,value
2018-05-10T00:00:49.802Z,11.2
2018-05-10T00:02:49.923Z,11.2
2018-05-10T00:04:50.381Z,11.4
2018-05-10T00:06:49.650Z,11.3
2018-05-10T00:08:49.797Z,11.3
2018-05-10T00:10:49.976Z,11.3
2018-05-10T00:12:50.080Z,11.1
2018-05-10T00:14:50.207Z,11.2
2018-05-10T00:16:49.502Z,11.3
2018-05-10T00:18:49.606Z,11.9
2018-05-10T00:20:49.837Z,11.9
2018-05-10T00:22:50.060Z,11.9
2018-05-10T00:24:50.262Z,11.9
2018-05-10T00:26:49.663Z,11.4
2018-05-10T00:28:49.911Z,11.8
2018-05-10T00:30:50.044Z,11.8
2018-05-10T00:32:50.185Z,11.9
2018-05-10T00:34:49.510Z,12.0
2018-05-10T00:36:49.836Z,11.3
2018-05-10T00:38:50.024Z,11.3
2018-05-10T00:40:50.152Z,11.9
2018-05-10T00:42:50.270Z,13.0
2018-05-10T00:44:50.402Z,11.6
2018-05-10T00:46:49.640Z,11.7
2018-05-10T00:48:49.804Z,11.7
2018-05-10T00:50:49.972Z,12.0
2018-05-10T00:52:50.104Z,11.6
2018-05-10T00:54:50.206Z,12.1
2018-05-10T00:56:49.503Z,12.3
2018-05-10T00:58:49.634Z,12.3
2018-05-10T01:00:49.762Z,11.5
2018-05-10T01:02:49.898Z,12.0
2018-05-10T01:04:50.389Z,11.6
2018-05-10T01:06:50.204Z,11.6
2018-05-10T01:08:50.330Z,11.6
2018-05-10T01:10:49.507Z,12.2
2018-05-10T01:12:49.739Z,11.6
2018-05-10T01:14:49.845Z,12.4
2018-05-10T01:16:50.113Z,12.4
2018-05-10T01:18:50.355Z,12.4
2018-05-10T01:20:49.571Z,12.8
2018-05-10T01:22:49.882Z,12.3
2018-05-10T01:24:50.023Z,12.3
2018-05-10T01:26:50.406Z,12.1
2018-05-10T01:28:49.501Z,11.7
2018-05-10T01:30:49.575Z,12.5
2018-05-10T01:32:49.783Z,12.0
2018-05-10T01:34:50.106Z,12.4
2018-05-10T01:36:50.298Z,12.4
2018-05-10T01:38:49.476Z,12.4
2018-05-10T01:40:49.626Z,12.8
2018-05-10T01:42:49.763Z,12.8
2018-05-10T01:44:49.965Z,13.0
2018-05-10T01:46:50.258Z,13.0
2018-05-10T01:48:50.384Z,13.0
2018-05-10T01:50:49.507Z,12.9
2018-05-10T01:52:49.626Z,13.2
2018-05-10T01:54:49.827Z,13.2
2018-05-10T01:56:50.067Z,13.4
2018-05-10T01:58:50.251Z,13.4
2018-05-10T02:00:50.409Z,13.2
2018-05-10T02:02:49.698Z,13.3
2018-05-10T02:04:50.005Z,13.3
2018-05-10T02:06:50.377Z,13.8
2018-05-10T02:08:50.411Z,13.8
2018-05-10T02:10:49.606Z,12.9
2018-05-10T02:12:49.805Z,13.7
2018-05-10T02:14:49.882Z,13.7
2018-05-10T02:16:50.225Z,13.6
2018-05-10T02:18:50.393Z,13.6
2018-05-10T02:20:49.530Z,13.5
2018-05-10T02:22:49.618Z,13.3
2018-05-10T02:24:49.718Z,13.3
2018-05-10T02:26:50.073Z,13.6
2018-05-10T02:28:50.227Z,14.1
2018-05-10T02:30:50.353Z,13.7
2018-05-10T02:32:49.519Z,13.7
2018-05-10T02:34:49.918Z,13.9
2018-05-10T02:36:50.256Z,14.1
2018-05-10T02:38:50.429Z,13.8
2018-05-10T02:40:49.599Z,13.7
2018-05-10T02:42:49.806Z,13.7
2018-05-10T02:44:49.988Z,13.5
2018-05-10T02:46:49.703Z,13.5
2018-05-10T02:48:49.807Z,14.5
2018-05-10T02:50:49.969Z,14.7
2018-05-10T02:52:50.201Z,14.7
2018-05-10T02:54:50.415Z,13.9
2018-05-10T02:56:49.730Z,13.9
2018-05-10T02:58:49.927Z,14.3
2018-05-10T03:00:50.163Z,14.3
2018-05-10T03:02:50.336Z,13.9
2018-05-10T03:04:49.826Z,13.9
2018-05-10T03:06:50.125Z,13.7
2018-05-10T03:08:50.306Z,13.5
2018-05-10T03:10:49.489Z,14.4
2018-05-10T03:12:49.728Z,14.4
2018-05-10T03:14:50.001Z,13.8
2018-05-10T03:16:50.302Z,14.0
2018-05-10T03:18:49.455Z,13.7
2018-05-10T03:20:49.534Z,15.2
2018-05-10T03:22:49.651Z,14.6
2018-05-10T03:24:49.737Z,14.6
2018-05-10T03:26:49.949Z,14.7
2018-05-10T03:28:50.124Z,14.5
2018-05-10T03:30:50.303Z,14.8
2018-05-10T03:32:49.546Z,14.7
2018-05-10T03:34:49.931Z,14.7
2018-05-10T03:36:50.195Z,14.6
2018-05-10T03:38:50.349Z,14.1
2018-05-10T03:40:50.480Z,14.6
2018-05-10T03:42:49.709Z,14.6
2018-05-10T03:44:49.849Z,14.8
2018-05-10T03:46:50.048Z,15.0
2018-05-10T03:48:50.193Z,14.1
2018-05-10T03:50:50.329Z,14.7
2018-05-10T03:52:49.517Z,14.7
2018-05-10T03:54:49.652Z,14.5
2018-05-10T03:56:49.949Z,14.4
2018-05-10T03:58:50.089Z,14.5
2018-05-10T04:00:50.211Z,14.5
2018-05-10T04:02:50.346Z,14.9
2018-05-10T04:04:49.729Z,14.2
2018-05-10T04:06:49.978Z,14.5
2018-05-10T04:08:49.754Z,14.7
2018-05-10T04:10:49.856Z,14.7
2018-05-10T04:12:50.197Z,14.7
2018-05-10T04:14:49.483Z,13.6
2018-05-10T04:16:49.741Z,13.8
2018-05-10T04:18:49.886Z,13.5
2018-05-10T04:20:50.002Z,13.5
2018-05-10T04:22:50.103Z,14.5
2018-05-10T04:24:50.278Z,14.2
2018-05-10T04:26:50.130Z,13.4
2018-05-10T04:28:50.314Z,13.4
2018-05-10T04:30:49.519Z,13.9
2018-05-10T04:32:49.720Z,13.9
2018-05-10T04:34:50.068Z,13.9
2018-05-10T04:36:50.411Z,13.5
2018-05-10T04:38:49.559Z,13.5
2018-05-10T04:40:49.718Z,13.2
2018-05-10T04:42:49.978Z,11.9
2018-05-10T04:44:50.178Z,12.0
2018-05-10T04:46:49.501Z,12.5
2018-05-10T04:48:49.657Z,12.5
2018-05-10T04:50:49.803Z,12.3
2018-05-10T04:52:49.976Z,12.0
2018-05-10T04:54:50.187Z,12.0
2018-05-10T04:56:50.036Z,12.2
2018-05-10T04:58:50.140Z,12.2
2018-05-10T05:00:50.293Z,11.6
2018-05-10T05:02:49.554Z,10.9
2018-05-10T05:04:50.039Z,11.1
2018-05-10T05:06:50.353Z,11.3
2018-05-10T05:08:49.554Z,11.3
2018-05-10T05:10:50.200Z,10.6
2018-05-10T05:12:50.355Z,10.0
2018-05-10T05:14:49.639Z,10.3
2018-05-10T05:16:49.976Z,10.3
2018-05-10T05:18:50.121Z,10.3
2018-05-10T05:20:50.346Z,10.4
2018-05-10T05:22:49.507Z,11.4
2018-05-10T05:24:49.610Z,10.7
2018-05-10T05:26:49.940Z,10.1
2018-05-10T05:28:49.437Z,10.1
2018-05-10T05:30:49.577Z,10.5
2018-05-10T05:32:49.720Z,9.7
2018-05-10T05:34:50.028Z,9.7
2018-05-10T05:36:49.830Z,9.7
2018-05-10T05:38:49.953Z,10.3
2018-05-10T05:40:50.114Z,10.3
2018-05-10T05:42:50.277Z,9.3
2018-05-10T05:44:49.518Z,8.9
2018-05-10T05:46:49.720Z,8.9
2018-05-10T05:48:49.860Z,9.1
2018-05-10T05:50:50.028Z,9.0
2018-05-10T05:52:50.205Z,9.6
2018-05-10T05:54:50.404Z,9.3
2018-05-10T05:56:49.718Z,9.1
2018-05-10T05:58:49.904Z,9.1
2018-05-10T06:00:50.262Z,9.2
2018-05-10T06:02:49.739Z,9.0
2018-05-10T06:04:50.160Z,8.3
2018-05-10T06:06:49.489Z,8.3
2018-05-10T06:08:49.677Z,7.9
2018-05-10T06:10:49.791Z,8.3
2018-05-10T06:12:49.986Z,8.5
2018-05-10T06:14:50.171Z,8.5
2018-05-10T06:16:49.431Z,11.0
2018-05-10T06:18:49.561Z,7.7
2018-05-10T06:20:49.712Z,7.8
2018-05-10T06:22:49.933Z,7.8
2018-05-10T06:24:50.188Z,8.0
2018-05-10T06:26:49.517Z,8.0
2018-05-10T06:28:49.781Z,8.5
2018-05-10T06:30:49.908Z,7.6
2018-05-10T06:32:50.065Z,7.6
2018-05-10T06:34:50.477Z,8.0
2018-05-10T06:36:49.812Z,8.3
2018-05-10T06:38:49.930Z,7.2
2018-05-10T06:40:50.085Z,7.2
2018-05-10T06:42:50.289Z,7.2
2018-05-10T06:54:49.468Z,8.1
2018-05-10T06:56:49.815Z,8.1
2018-05-10T06:58:49.952Z,7.9
2018-05-10T07:00:50.098Z,8.0
2018-05-10T07:02:50.323Z,8.1
2018-05-10T07:04:49.689Z,8.2
2018-05-10T07:06:49.916Z,8.2
2018-05-10T07:08:50.031Z,8.2
2018-05-10T07:10:50.220Z,7.4
2018-05-10T07:12:50.432Z,7.9
2018-05-10T07:14:49.664Z,7.8
2018-05-10T07:16:49.996Z,7.4
2018-05-10T07:18:50.163Z,7.4
2018-05-10T07:20:50.357Z,8.7
2018-05-10T07:22:49.494Z,8.0
2018-05-10T07:24:49.715Z,10.2
2018-05-10T07:26:49.944Z,10.2
2018-05-10T07:28:50.095Z,8.4
2018-05-10T07:30:50.276Z,9.3
2018-05-10T07:32:49.493Z,8.4
2018-05-10T07:34:49.966Z,7.7
2018-05-10T07:36:50.301Z,7.7
2018-05-10T07:38:49.589Z,8.1
2018-05-10T07:40:49.727Z,8.0
2018-05-10T07:42:49.879Z,8.4
2018-05-10T07:44:49.984Z,9.6
2018-05-10T07:46:50.266Z,9.6
2018-05-10T07:48:50.376Z,8.5
2018-05-10T07:50:49.528Z,8.5
2018-05-10T07:52:49.681Z,8.6
2018-05-10T07:54:49.833Z,8.6
2018-05-10T07:56:50.150Z,8.7
2018-05-10T07:58:50.242Z,8.7
2018-05-10T08:00:50.417Z,7.1
2018-05-10T08:02:49.544Z,7.4
2018-05-10T08:04:49.858Z,7.4
2018-05-10T08:06:50.131Z,7.7
2018-05-10T08:08:50.387Z,7.7
2018-05-10T08:10:49.562Z,8.2
2018-05-10T08:12:49.685Z,7.8
2018-05-10T08:14:49.796Z,8.7
2018-05-10T08:16:50.150Z,8.7
2018-05-10T08:18:50.259Z,10.0
2018-05-10T08:20:50.415Z,8.4
2018-05-10T08:22:49.642Z,7.1
2018-05-10T08:24:49.811Z,7.3
2018-05-10T08:26:50.129Z,7.3
2018-05-10T08:28:50.277Z,7.2
2018-05-10T08:30:50.412Z,7.2
2018-05-10T08:32:49.543Z,7.8
2018-05-10T08:34:49.919Z,7.9
2018-05-10T08:36:50.531Z,7.9
2018-05-10T08:38:50.357Z,7.6
2018-05-10T08:40:49.571Z,7.6
2018-05-10T08:42:49.764Z,7.3
2018-05-10T08:44:49.867Z,8.0
2018-05-10T08:46:50.111Z,8.0
2018-05-10T08:48:50.236Z,7.8
2018-05-10T08:50:49.440Z,8.8
2018-05-10T08:52:49.520Z,8.2
2018-05-10T08:54:49.579Z,8.2
2018-05-10T08:56:49.865Z,8.4
2018-05-10T08:58:50.001Z,7.9
2018-05-10T09:00:50.168Z,8.2
2018-05-10T09:02:50.296Z,8.2
2018-05-10T09:04:49.730Z,8.2
2018-05-10T09:06:49.972Z,8.2
2018-05-10T09:08:50.069Z,8.0
2018-05-10T09:10:50.176Z,6.9
2018-05-10T09:12:50.299Z,6.9
2018-05-10T09:14:49.434Z,7.2
2018-05-10T09:16:49.610Z,6.2
2018-05-10T09:18:49.781Z,6.2
2018-05-10T09:20:49.896Z,7.6
2018-05-10T09:22:50.165Z,7.4
2018-05-10T09:24:50.307Z,8.7
2018-05-10T09:26:49.532Z,6.2
2018-05-10T09:28:49.720Z,6.4
2018-05-10T09:30:49.927Z,7.5
2018-05-10T09:32:50.114Z,7.5
2018-05-10T09:34:49.460Z,7.1
2018-05-10T09:36:49.756Z,6.1
2018-05-10T09:38:49.940Z,7.1
2018-05-10T09:40:50.070Z,7.1
2018-05-10T09:42:50.162Z,6.3
2018-05-10T09:44:50.403Z,6.1
2018-05-10T09:46:49.880Z,6.2
2018-05-10T09:48:49.999Z,7.6
2018-05-10T09:50:50.151Z,7.6
2018-05-10T09:52:50.228Z,6.0
2018-05-10T09:54:50.386Z,6.0
2018-05-10T09:56:49.603Z,6.8
2018-05-10T09:58:49.783Z,5.9
2018-05-10T10:00:49.875Z,5.9
2018-05-10T10:02:49.947Z,5.4
2018-05-10T10:04:50.398Z,5.1
2018-05-10T10:06:49.632Z,6.2
2018-05-10T10:08:49.733Z,6.5
2018-05-10T10:10:49.868Z,5.7
2018-05-10T10:12:50.109Z,5.7
2018-05-10T10:14:50.211Z,5.3
2018-05-10T10:16:49.477Z,6.5
2018-05-10T10:18:49.555Z,6.5
2018-05-10T10:20:49.667Z,6.6
2018-05-10T10:22:49.793Z,4.6
2018-05-10T10:24:49.979Z,5.1
2018-05-10T10:26:50.266Z,5.7
2018-05-10T10:28:50.411Z,5.7
2018-05-10T10:30:49.540Z,4.9
2018-05-10T10:32:49.629Z,4.9
2018-05-10T10:34:49.942Z,4.5
2018-05-10T10:36:50.208Z,4.5
2018-05-10T10:38:50.412Z,4.2
2018-05-10T10:40:49.522Z,4.9
2018-05-10T10:42:49.649Z,4.9
2018-05-10T10:44:49.824Z,5.0
2018-05-10T10:46:50.058Z,4.8
2018-05-10T10:48:50.382Z,4.8
2018-05-10T10:50:49.464Z,4.1
2018-05-10T10:52:49.592Z,4.1
2018-05-10T10:54:49.907Z,4.3
2018-05-10T10:56:50.180Z,4.3
2018-05-10T10:58:50.268Z,4.3
2018-05-10T11:00:49.474Z,4.4
2018-05-10T11:02:49.602Z,4.9
2018-05-10T11:04:49.933Z,5.1
2018-05-10T11:06:50.136Z,4.0
2018-05-10T11:08:50.347Z,4.0
2018-05-10T11:10:49.825Z,3.9
2018-05-10T11:12:49.997Z,2.7
2018-05-10T11:14:50.133Z,3.6
2018-05-10T11:16:49.455Z,2.2
2018-05-10T11:18:49.571Z,2.2
2018-05-10T11:20:49.765Z,3.5
2018-05-10T11:22:50.317Z,3.0
2018-05-10T11:24:50.419Z,5.2
2018-05-10T11:26:49.647Z,5.2
2018-05-10T11:28:49.722Z,11.0
2018-05-10T11:30:49.824Z,12.1
2018-05-10T11:32:50.076Z,9.7
2018-05-10T11:34:49.678Z,9.6
2018-05-10T11:36:49.894Z,9.6
2018-05-10T11:38:50.076Z,7.1
2018-05-10T11:40:50.200Z,7.1
2018-05-10T11:42:49.475Z,7.4
2018-05-10T11:44:49.579Z,7.3
2018-05-10T11:46:49.836Z,6.7
2018-05-10T11:48:50.000Z,6.7
2018-05-10T11:50:50.122Z,6.2
2018-05-10T11:52:50.236Z,6.5
2018-05-10T11:54:50.349Z,8.5
2018-05-10T11:56:49.653Z,8.5
2018-05-10T11:58:49.791Z,6.8
2018-05-10T12:00:49.908Z,7.6
2018-05-10T12:02:50.024Z,6.5
2018-05-10T12:04:49.570Z,5.7
2018-05-10T12:06:49.779Z,5.7
2018-05-10T12:08:49.871Z,5.1
2018-05-10T12:10:50.018Z,6.4
2018-05-10T12:12:50.192Z,5.9
2018-05-10T12:14:50.312Z,6.1
2018-05-10T12:16:49.569Z,6.1
2018-05-10T12:18:49.872Z,5.9
2018-05-10T12:20:50.036Z,5.9
2018-05-10T12:22:50.189Z,5.8
2018-05-10T12:24:50.360Z,5.8
2018-05-10T12:26:49.716Z,5.6
2018-05-10T12:28:49.921Z,5.3
2018-05-10T12:30:50.024Z,6.1
2018-05-10T12:32:50.160Z,7.2
2018-05-10T12:34:49.508Z,7.2
2018-05-10T12:36:49.756Z,9.8
2018-05-10T12:38:49.880Z,9.8
2018-05-10T12:40:50.068Z,10.1
2018-05-10T12:42:49.477Z,10.1
2018-05-10T12:44:49.852Z,7.0
2018-05-10T12:46:50.086Z,7.8
2018-05-10T12:48:50.249Z,9.1
2018-05-10T12:50:50.415Z,9.1
2018-05-10T12:52:49.560Z,6.3
2018-05-10T12:54:49.734Z,6.3
2018-05-10T12:56:50.032Z,5.9
2018-05-10T12:58:50.130Z,5.6
2018-05-10T13:00:50.386Z,5.6
2018-05-10T13:02:50.222Z,5.6
2018-05-10T13:04:50.131Z,8.0
2018-05-10T13:06:50.447Z,8.0
2018-05-10T13:08:49.975Z,10.2
2018-05-10T13:10:50.141Z,9.8
2018-05-10T13:12:50.388Z,9.8
2018-05-10T13:14:49.487Z,7.6
2018-05-10T13:16:49.767Z,7.6
2018-05-10T13:18:49.859Z,8.8
2018-05-10T13:20:50.063Z,7.1
2018-05-10T13:22:50.185Z,7.1
2018-05-10T13:24:50.309Z,9.6
2018-05-10T13:26:49.499Z,5.1
2018-05-10T13:28:49.708Z,5.1
2018-05-10T13:30:50.124Z,5.2
2018-05-10T13:32:50.257Z,5.2
2018-05-10T13:34:49.695Z,6.1
2018-05-10T13:36:49.958Z,2.7
2018-05-10T13:38:50.075Z,2.9
2018-05-10T13:40:50.106Z,3.0
2018-05-10T13:42:50.238Z,4.1
2018-05-10T13:44:50.407Z,4.1
2018-05-10T13:46:49.625Z,3.4
2018-05-10T13:48:49.809Z,4.1
2018-05-10T13:50:49.906Z,4.3
2018-05-10T13:52:50.042Z,4.3
2018-05-10T13:54:50.147Z,4.1
2018-05-10T13:56:50.344Z,3.6
2018-05-10T13:58:49.515Z,3.3
2018-05-10T14:00:49.643Z,3.4
2018-05-10T14:02:49.748Z,3.4
2018-05-10T14:04:50.147Z,4.0
2018-05-10T14:06:50.284Z,3.1
2018-05-10T14:08:49.446Z,3.5
2018-05-10T14:10:49.600Z,3.5
2018-05-10T14:12:50.008Z,3.3
2018-05-10T14:14:50.194Z,3.8
2018-05-10T14:16:49.513Z,4.4
2018-05-10T14:18:49.606Z,3.4
2018-05-10T14:20:49.852Z,3.4
2018-05-10T14:22:49.948Z,3.9
2018-05-10T14:24:50.082Z,3.6
2018-05-10T14:26:50.365Z,3.5
2018-05-10T14:28:50.424Z,3.5
2018-05-10T14:30:49.524Z,6.6
2018-05-10T14:32:49.680Z,6.6
2018-05-10T14:34:50.279Z,4.8
2018-05-10T14:36:49.557Z,4.1
2018-05-10T14:38:49.672Z,4.1
2018-05-10T14:40:49.803Z,4.3
2018-05-10T14:42:49.945Z,3.2
2018-05-10T14:44:50.074Z,3.6
2018-05-10T14:46:50.316Z,3.6
2018-05-10T14:48:50.428Z,3.6
2018-05-10T14:50:49.622Z,4.3
2018-05-10T14:52:49.735Z,4.3
2018-05-10T14:54:49.866Z,5.1
2018-05-10T14:56:50.129Z,5.1
2018-05-10T14:58:50.287Z,5.1
2018-05-10T15:00:49.438Z,4.6
2018-05-10T15:02:49.587Z,4.6
2018-05-10T15:04:49.922Z,5.5
2018-05-10T15:06:50.140Z,5.4
2018-05-10T15:08:50.249Z,5.4
2018-05-10T15:10:50.385Z,6.1
2018-05-10T15:12:49.608Z,5.6
2018-05-10T15:14:49.819Z,6.4
2018-05-10T15:16:49.978Z,5.6
2018-05-10T15:18:50.127Z,6.6
2018-05-10T15:20:50.233Z,6.6
2018-05-10T15:22:50.355Z,5.8
2018-05-10T15:24:49.579Z,6.2
2018-05-10T15:26:49.878Z,6.2
2018-05-10T15:28:50.015Z,6.2
2018-05-10T15:30:50.216Z,6.0
2018-05-10T15:32:50.324Z,6.2
2018-05-10T15:34:49.657Z,6.2
2018-05-10T15:36:49.911Z,6.3
2018-05-10T15:38:50.038Z,5.9
2018-05-10T15:40:50.197Z,6.2
2018-05-10T15:42:50.297Z,6.3
2018-05-10T15:44:50.392Z,6.6
2018-05-10T15:46:49.622Z,6.3
2018-05-10T15:48:49.718Z,6.3
2018-05-10T15:50:49.850Z,7.9
2018-05-10T15:52:50.056Z,7.4
2018-05-10T15:54:50.205Z,7.1
2018-05-10T15:56:49.525Z,7.1
2018-05-10T15:58:49.706Z,8.4
2018-05-10T16:00:49.784Z,6.8
2018-05-10T16:02:49.960Z,7.0
2018-05-10T16:04:50.240Z,7.0
2018-05-10T16:06:49.527Z,6.4
2018-05-10T16:08:49.703Z,8.3
2018-05-10T16:10:49.834Z,9.7
2018-05-10T16:12:50.066Z,7.4
2018-05-10T16:14:50.164Z,7.4
2018-05-10T16:16:49.485Z,7.1
2018-05-10T16:18:49.589Z,7.3
2018-05-10T16:20:49.775Z,7.9
2018-05-10T16:22:49.976Z,7.9
2018-05-10T16:24:50.183Z,7.4
2018-05-10T16:26:49.461Z,6.7
2018-05-10T16:28:49.660Z,6.7
2018-05-10T16:30:49.843Z,7.6
2018-05-10T16:32:50.091Z,7.2
2018-05-10T16:34:49.853Z,7.2
2018-05-10T16:36:50.098Z,7.6
2018-05-10T16:38:50.251Z,7.6
2018-05-10T16:40:50.363Z,8.0
2018-05-10T16:42:49.516Z,8.6
2018-05-10T16:44:49.770Z,8.6
2018-05-10T16:46:50.116Z,8.3
2018-05-10T16:48:50.181Z,8.6
2018-05-10T16:50:50.405Z,8.5
2018-05-10T16:52:49.534Z,9.5
2018-05-10T16:54:49.690Z,9.5
2018-05-10T16:56:49.941Z,7.6
2018-05-10T16:58:50.127Z,9.5
2018-05-10T17:00:50.250Z,9.0
2018-05-10T17:02:49.469Z,9.0
2018-05-10T17:04:49.732Z,9.2
2018-05-10T17:06:49.936Z,9.6
2018-05-10T17:08:50.155Z,9.8
2018-05-10T17:10:50.284Z,10.1
2018-05-10T17:12:50.409Z,10.1
2018-05-10T17:14:49.558Z,11.6
2018-05-10T17:16:49.746Z,12.4
2018-05-10T17:18:49.894Z,12.5
2018-05-10T17:20:50.051Z,12.4
2018-05-10T17:22:50.187Z,12.4
2018-05-10T17:24:50.325Z,11.1
2018-05-10T17:26:49.504Z,11.6
2018-05-10T17:28:49.658Z,11.9
2018-05-10T17:30:49.884Z,12.0
2018-05-10T17:32:50.237Z,12.0
2018-05-10T17:34:49.588Z,11.4
2018-05-10T17:36:49.817Z,12.3
2018-05-10T17:38:50.065Z,11.5
2018-05-10T17:40:50.148Z,12.3
2018-05-10T17:42:49.447Z,12.3
2018-05-10T17:44:49.588Z,12.4
2018-05-10T17:46:49.897Z,14.1
2018-05-10T17:48:50.082Z,18.0
2018-05-10T17:50:50.270Z,18.0
2018-05-10T17:52:49.477Z,30.3
2018-05-10T17:54:49.667Z,30.3
2018-05-10T17:56:49.965Z,34.2
2018-05-10T17:58:50.112Z,37.4
2018-05-10T18:00:50.263Z,37.4
2018-05-10T18:02:49.623Z,30.9
2018-05-10T18:04:49.976Z,30.9
2018-05-10T18:06:50.260Z,30.9
2018-05-10T18:08:50.370Z,35.0
2018-05-10T18:10:49.496Z,35.0
2018-05-10T18:12:49.640Z,38.1
2018-05-10T18:14:49.850Z,36.1
2018-05-10T18:16:50.144Z,34.7
2018-05-10T18:18:50.318Z,34.4
2018-05-10T18:20:49.527Z,32.5
2018-05-10T18:22:49.631Z,32.5
2018-05-10T18:24:49.738Z,32.6
2018-05-10T18:26:49.979Z,37.8
2018-05-10T18:28:50.155Z,41.7
2018-05-10T18:30:50.346Z,41.7
2018-05-10T18:32:49.471Z,41.1
2018-05-10T18:34:49.803Z,41.5
2018-05-10T18:36:50.083Z,45.4
2018-05-10T18:38:50.214Z,41.5
2018-05-10T18:40:50.443Z,41.5
2018-05-10T18:42:49.975Z,44.5
2018-05-10T18:44:50.100Z,50.7
2018-05-10T18:46:50.384Z,46.4
2018-05-10T18:48:49.492Z,48.8
2018-05-10T18:50:49.639Z,48.8
2018-05-10T18:52:49.819Z,47.3
2018-05-10T18:54:50.079Z,60.5
2018-05-10T18:56:50.179Z,48.0
2018-05-10T18:58:50.364Z,48.0
2018-05-10T19:00:49.506Z,58.0
2018-05-10T19:02:49.631Z,60.8
2018-05-10T19:04:50.039Z,66.9
2018-05-10T19:06:50.340Z,66.9
2018-05-10T19:08:49.476Z,68.2
2018-05-10T19:10:49.619Z,61.6
2018-05-10T19:12:49.777Z,60.8
2018-05-10T19:14:49.879Z,71.9
2018-05-10T19:16:50.182Z,71.9
2018-05-10T19:18:50.248Z,71.0
2018-05-10T19:20:50.470Z,71.0
2018-05-10T19:22:49.807Z,78.7
2018-05-10T19:24:49.918Z,79.1
2018-05-10T19:26:50.154Z,62.9
2018-05-10T19:28:50.370Z,64.5
2018-05-10T19:30:49.508Z,64.5
2018-05-10T19:32:49.694Z,65.1
2018-05-10T19:34:50.035Z,65.1
2018-05-10T19:36:50.397Z,53.8
2018-05-10T19:38:49.516Z,53.8
2018-05-10T19:40:49.641Z,58.9
2018-05-10T19:42:49.794Z,57.9
2018-05-10T19:44:49.920Z,53.9
2018-05-10T19:46:50.147Z,56.5
2018-05-10T19:48:50.245Z,56.5
2018-05-10T19:50:50.346Z,46.8
2018-05-10T19:52:49.557Z,47.9
2018-05-10T19:54:49.763Z,49.9
2018-05-10T19:56:50.007Z,49.9
2018-05-10T19:58:49.664Z,52.6
2018-05-10T20:00:49.830Z,55.5
2018-05-10T20:02:50.031Z,51.3
2018-05-10T20:04:50.406Z,45.2
2018-05-10T20:06:49.751Z,45.2
2018-05-10T20:08:49.932Z,41.6
2018-05-10T20:10:50.116Z,37.2
2018-05-10T20:12:50.271Z,37.2
2018-05-10T20:14:50.397Z,32.2
2018-05-10T20:16:49.786Z,32.2
2018-05-10T20:18:50.285Z,30.3
2018-05-10T20:20:50.449Z,23.4
2018-05-10T20:22:49.650Z,24.1
2018-05-10T20:24:49.874Z,24.1
2018-05-10T20:26:50.194Z,23.3
2018-05-10T20:28:50.307Z,20.1
2018-05-10T20:30:49.459Z,21.1
2018-05-10T20:32:49.726Z,17.9
2018-05-10T20:34:50.074Z,17.9
2018-05-10T20:36:49.495Z,17.7
2018-05-10T20:38:49.646Z,17.7
2018-05-10T20:40:49.814Z,19.8
2018-05-10T20:42:50.047Z,17.9
2018-05-10T20:44:50.333Z,17.9
2018-05-10T20:46:50.284Z,18.1
2018-05-10T20:48:50.413Z,16.2
2018-05-10T20:50:49.686Z,19.4
2018-05-10T20:52:50.011Z,18.2
2018-05-10T20:54:50.179Z,18.2
2018-05-10T20:56:49.544Z,21.3
2018-05-10T20:58:49.679Z,19.4
2018-05-10T21:00:49.857Z,24.4
2018-05-10T21:02:50.006Z,24.4
2018-05-10T21:04:50.310Z,25.0
2018-05-10T21:06:49.755Z,25.0
2018-05-10T21:08:49.889Z,25.0
2018-05-10T21:10:49.972Z,25.0
2018-05-10T21:12:50.086Z,27.0
2018-05-10T21:14:50.240Z,27.0
2018-05-10T21:16:49.539Z,27.2
2018-05-10T21:18:49.707Z,27.7
2018-05-10T21:20:49.846Z,27.7
2018-05-10T21:22:49.977Z,27.8
2018-05-10T21:24:50.180Z,30.4
2018-05-10T21:26:50.426Z,30.1
2018-05-10T21:28:49.615Z,31.6
2018-05-10T21:30:49.806Z,30.7
2018-05-10T21:32:49.960Z,30.7
2018-05-10T21:34:50.408Z,30.6
2018-05-10T21:36:49.764Z,31.8
2018-05-10T21:38:49.857Z,33.1
2018-05-10T21:40:50.026Z,33.1
2018-05-10T21:42:50.334Z,33.2
2018-05-10T21:44:49.959Z,33.2
2018-05-10T21:46:49.453Z,33.7
2018-05-10T21:48:49.646Z,32.5
2018-05-10T21:50:49.757Z,32.8
2018-05-10T21:52:49.981Z,33.7
2018-05-10T21:54:50.247Z,33.7
2018-05-10T21:56:49.672Z,35.4
2018-05-10T21:58:49.817Z,30.4
2018-05-10T22:00:49.978Z,34.5
2018-05-10T22:02:50.290Z,34.5
2018-05-10T22:04:49.560Z,32.2
2018-05-10T22:06:49.795Z,35.1
2018-05-10T22:08:50.034Z,40.0
2018-05-10T22:10:50.407Z,40.0
2018-05-10T22:12:49.637Z,38.5
2018-05-10T22:14:49.796Z,38.5
2018-05-10T22:16:50.057Z,43.0
2018-05-10T22:18:50.202Z,39.0
2018-05-10T22:20:50.386Z,39.0
2018-05-10T22:22:49.582Z,46.3
2018-05-10T22:24:49.773Z,46.3
2018-05-10T22:26:50.084Z,36.0
2018-05-10T22:28:50.308Z,36.0
2018-05-10T22:30:50.433Z,41.0
2018-05-10T22:32:49.559Z,38.2
2018-05-10T22:34:49.928Z,35.2
2018-05-10T22:36:50.141Z,38.5
2018-05-10T22:38:50.263Z,37.1
2018-05-10T22:40:50.373Z,36.0
2018-05-10T22:42:49.491Z,36.0
2018-05-10T22:44:49.587Z,39.4
2018-05-10T22:46:49.892Z,39.4
2018-05-10T22:48:50.001Z,37.2
2018-05-10T22:50:50.207Z,37.2
2018-05-10T22:52:50.367Z,37.3
2018-05-10T22:54:49.556Z,36.5
2018-05-10T22:56:49.887Z,40.5
2018-05-10T22:58:50.085Z,40.5
2018-05-10T23:00:50.210Z,39.0
2018-05-10T23:02:50.395Z,41.0
2018-05-10T23:04:49.895Z,32.5
2018-05-10T23:06:50.109Z,34.5
2018-05-10T23:08:50.222Z,34.5
2018-05-10T23:10:50.348Z,34.1
2018-05-10T23:12:49.508Z,34.1
2018-05-10T23:14:49.657Z,34.9
2018-05-10T23:16:49.914Z,36.2
2018-05-10T23:18:50.059Z,36.2
2018-05-10T23:20:50.164Z,33.4
2018-05-10T23:22:50.379Z,34.4
2018-05-10T23:24:49.522Z,38.6
2018-05-10T23:26:49.799Z,38.6
2018-05-10T23:28:50.025Z,37.9
2018-05-10T23:30:50.155Z,34.8
2018-05-10T23:32:50.307Z,38.5
2018-05-10T23:34:49.641Z,42.0
2018-05-10T23:36:49.850Z,42.0
2018-05-10T23:38:50.007Z,39.6
2018-05-10T23:40:50.115Z,39.4
2018-05-10T23:42:50.321Z,36.7
2018-05-10T23:44:49.488Z,43.2
2018-05-10T23:46:49.710Z,43.2
2018-05-10T23:48:49.858Z,39.8
2018-05-10T23:50:50.031Z,39.8
2018-05-10T23:52:50.183Z,41.8
2018-05-10T23:54:50.381Z,37.6
2018-05-10T23:56:49.614Z,37.6
2018-05-10T23:58:49.758Z,44.8
